createdAt,value
2019-02-26T00:01:59.938Z,36.87
2019-02-26T00:04:29.766Z,30.47
2019-02-26T00:07:00.434Z,26.13
2019-02-26T00:09:30.618Z,31.93
2019-02-26T00:12:01.069Z,31.57
2019-02-26T00:14:30.482Z,27.67
2019-02-26T00:16:59.985Z,27.17
2019-02-26T00:19:29.409Z,31.30
2019-02-26T00:21:58.840Z,29.67
2019-02-26T00:24:30.604Z,28.97
2019-02-26T00:27:01.105Z,25.07
2019-02-26T00:29:32.166Z,24.67
2019-02-26T00:32:01.993Z,27.10
2019-02-26T00:34:32.377Z,30.00
2019-02-26T00:37:04.059Z,27.77
2019-02-26T00:39:33.793Z,29.20
2019-02-26T00:42:05.151Z,32.63
2019-02-26T00:44:35.299Z,28.50
2019-02-26T00:47:06.681Z,29.87
2019-02-26T00:49:36.487Z,29.67
2019-02-26T00:52:06.404Z,31.80
2019-02-26T00:54:36.983Z,30.13
2019-02-26T00:57:08.601Z,31.47
2019-02-26T00:59:38.910Z,28.43
2019-02-26T01:02:08.789Z,32.00
2019-02-26T01:04:39.104Z,34.70
2019-02-26T01:07:09.121Z,33.70
2019-02-26T01:09:38.732Z,29.67
2019-02-26T01:12:09.245Z,30.63
2019-02-26T01:14:41.198Z,26.70
2019-02-26T01:17:12.069Z,28.87
2019-02-26T01:19:43.027Z,30.60
2019-02-26T01:22:12.602Z,30.47
2019-02-26T01:24:42.029Z,34.13
2019-02-26T01:27:11.473Z,29.13
2019-02-26T01:29:40.959Z,27.30
2019-02-26T01:32:13.213Z,29.20
2019-02-26T01:34:42.763Z,29.20
2019-02-26T01:37:12.656Z,33.20
2019-02-26T01:39:42.919Z,32.93
2019-02-26T01:42:15.532Z,28.93
2019-02-26T01:44:44.551Z,32.13
2019-02-26T01:47:14.103Z,29.40
2019-02-26T01:49:44.257Z,28.77
2019-02-26T01:52:15.102Z,33.87
2019-02-26T01:54:45.783Z,27.10
2019-02-26T01:57:17.298Z,30.70
2019-02-26T01:59:47.456Z,30.47
2019-02-26T02:02:20.070Z,32.47
2019-02-26T02:04:51.293Z,31.00
2019-02-26T02:07:21.318Z,28.90
2019-02-26T02:09:53.192Z,33.30
2019-02-26T02:12:25.416Z,30.80
2019-02-26T02:14:53.949Z,29.73
2019-02-26T02:17:23.449Z,29.00
2019-02-26T02:19:52.929Z,31.87
2019-02-26T02:22:22.421Z,33.80
2019-02-26T02:24:53.989Z,29.80
2019-02-26T02:27:26.848Z,29.87
2019-02-26T02:29:55.302Z,31.10
2019-02-26T02:32:26.636Z,30.23
2019-02-26T02:35:00.929Z,34.30
2019-02-26T02:37:30.028Z,36.57
2019-02-26T02:39:58.748Z,29.23
2019-02-26T02:42:28.243Z,30.30
2019-02-26T02:44:57.758Z,29.73
2019-02-26T02:47:28.571Z,33.20
2019-02-26T02:49:58.336Z,29.30
2019-02-26T02:52:29.738Z,29.07
2019-02-26T02:54:58.892Z,29.93
2019-02-26T02:57:30.136Z,30.80
2019-02-26T03:00:00.534Z,32.37
2019-02-26T03:02:30.507Z,31.37
2019-02-26T03:04:59.884Z,30.23
2019-02-26T03:07:29.508Z,32.20
2019-02-26T03:10:03.967Z,40.90
2019-02-26T03:12:32.166Z,31.13
2019-02-26T03:15:02.468Z,31.67
2019-02-26T03:17:34.544Z,35.30
2019-02-26T03:20:07.707Z,27.60
2019-02-26T03:22:41.535Z,32.20
2019-02-26T03:25:11.422Z,35.03
2019-02-26T03:27:42.635Z,36.20
2019-02-26T03:30:20.228Z,37.70
2019-02-26T03:32:50.565Z,42.23
2019-02-26T03:35:19.508Z,34.33
2019-02-26T03:37:51.483Z,33.40
2019-02-26T03:40:20.914Z,39.13
2019-02-26T03:42:52.436Z,34.67
2019-02-26T03:45:24.686Z,33.47
2019-02-26T03:47:55.434Z,37.33
2019-02-26T03:50:27.102Z,32.90
2019-02-26T03:52:55.952Z,36.53
2019-02-26T03:55:25.436Z,35.77
2019-02-26T03:57:58.521Z,32.97
2019-02-26T04:00:26.564Z,34.30
2019-02-26T04:02:56.188Z,36.03
2019-02-26T04:05:26.214Z,31.27
2019-02-26T04:07:58.879Z,38.83
2019-02-26T04:10:26.896Z,33.33
2019-02-26T04:12:58.145Z,36.70
2019-02-26T04:15:30.001Z,30.50
2019-02-26T04:17:58.406Z,36.47
2019-02-26T04:20:27.970Z,35.17
2019-02-26T04:22:57.491Z,34.43
2019-02-26T04:25:48.573Z,31.50
2019-02-26T04:28:45.023Z,38.77
2019-02-26T04:31:18.112Z,33.17
2019-02-26T04:33:56.026Z,35.37
2019-02-26T04:36:27.569Z,48.20
2019-02-26T04:39:27.940Z,37.80
2019-02-26T04:42:17.307Z,39.13
2019-02-26T04:45:08.920Z,35.53
2019-02-26T04:47:41.393Z,40.30
2019-02-26T04:50:10.847Z,37.87
2019-02-26T04:52:43.269Z,38.47
2019-02-26T04:55:11.424Z,38.57
2019-02-26T04:57:43.285Z,39.27
2019-02-26T05:00:12.122Z,45.30
2019-02-26T05:02:41.702Z,42.57
2019-02-26T05:05:11.334Z,42.43
2019-02-26T05:07:42.292Z,44.17
2019-02-26T05:10:12.906Z,38.53
2019-02-26T05:12:42.318Z,40.93
2019-02-26T05:15:16.773Z,41.33
2019-02-26T05:17:42.947Z,40.93
2019-02-26T05:20:15.171Z,39.40
2019-02-26T05:22:43.621Z,40.27
2019-02-26T05:25:16.356Z,37.57
2019-02-26T05:27:47.565Z,38.73
2019-02-26T05:30:18.940Z,40.30
2019-02-26T05:32:47.259Z,38.77
2019-02-26T05:35:17.956Z,37.37
2019-02-26T05:37:47.748Z,37.80
2019-02-26T05:40:21.486Z,40.13
2019-02-26T05:42:48.422Z,43.50
2019-02-26T05:45:17.924Z,38.77
2019-02-26T05:47:48.860Z,37.73
2019-02-26T05:50:18.548Z,39.90
2019-02-26T05:52:50.250Z,37.53
2019-02-26T05:55:20.582Z,35.23
2019-02-26T05:57:50.145Z,37.53
2019-02-26T06:00:22.676Z,41.43
2019-02-26T06:02:51.083Z,40.73
2019-02-26T06:05:23.141Z,37.50
2019-02-26T06:07:52.156Z,38.93
2019-02-26T06:10:24.337Z,36.70
2019-02-26T06:12:52.854Z,38.37
2019-02-26T06:15:25.709Z,43.50
2019-02-26T06:17:55.922Z,36.00
2019-02-26T06:20:28.065Z,39.43
2019-02-26T06:22:56.500Z,34.10
2019-02-26T06:25:26.065Z,38.63
2019-02-26T06:27:55.652Z,34.13
2019-02-26T06:30:25.067Z,38.63
2019-02-26T06:32:54.510Z,34.67
2019-02-26T06:35:23.970Z,37.90
2019-02-26T06:37:53.460Z,40.40
2019-02-26T06:40:23.028Z,41.00
2019-02-26T06:42:52.580Z,42.50
2019-02-26T06:45:21.974Z,45.63
2019-02-26T06:47:53.984Z,38.57
2019-02-26T06:50:22.644Z,42.47
2019-02-26T06:52:52.078Z,43.70
2019-02-26T06:55:21.492Z,43.47
2019-02-26T06:57:52.714Z,42.30
2019-02-26T07:00:24.577Z,41.80
2019-02-26T07:02:53.142Z,37.60
2019-02-26T07:05:24.496Z,39.37
2019-02-26T07:07:55.085Z,44.00
2019-02-26T07:10:28.235Z,45.10
2019-02-26T07:12:55.856Z,45.00
2019-02-26T07:15:28.798Z,41.37
2019-02-26T07:18:00.119Z,44.53
2019-02-26T07:20:33.881Z,38.63
2019-02-26T07:22:58.460Z,44.30
2019-02-26T07:25:27.821Z,41.17
2019-02-26T07:27:58.906Z,41.97
2019-02-26T07:30:28.899Z,44.07
2019-02-26T07:32:58.536Z,49.47
2019-02-26T07:35:28.836Z,40.53
2019-02-26T07:38:01.186Z,46.20
2019-02-26T07:40:30.525Z,49.10
2019-02-26T07:43:04.942Z,40.53
2019-02-26T07:45:32.385Z,45.83
2019-02-26T07:48:01.899Z,51.93
2019-02-26T07:50:36.951Z,41.67
2019-02-26T07:53:02.562Z,51.37
2019-02-26T07:55:32.868Z,43.20
2019-02-26T07:58:03.280Z,44.40
2019-02-26T08:00:37.002Z,44.27
2019-02-26T08:03:04.658Z,45.47
2019-02-26T08:05:34.938Z,44.60
2019-02-26T08:08:04.397Z,45.60
2019-02-26T08:10:37.203Z,56.43
2019-02-26T08:13:06.250Z,54.00
2019-02-26T08:15:37.521Z,51.90
2019-02-26T08:18:07.582Z,41.37
2019-02-26T08:20:37.585Z,44.43
2019-02-26T08:23:09.132Z,50.00
2019-02-26T08:25:40.103Z,40.20
2019-02-26T08:28:09.542Z,45.97
2019-02-26T08:30:42.324Z,45.03
2019-02-26T08:33:10.217Z,44.03
2019-02-26T08:35:39.834Z,43.00
2019-02-26T08:38:09.401Z,42.67
2019-02-26T08:40:38.849Z,50.00
2019-02-26T08:43:08.330Z,40.53
2019-02-26T08:45:37.987Z,39.00
2019-02-26T08:48:07.588Z,44.67
2019-02-26T08:50:39.058Z,37.90
2019-02-26T08:53:08.220Z,39.30
2019-02-26T08:55:37.710Z,41.07
2019-02-26T08:58:07.769Z,42.00
2019-02-26T09:00:38.380Z,41.50
2019-02-26T09:03:08.808Z,36.47
2019-02-26T09:05:39.005Z,38.70
2019-02-26T09:08:10.859Z,44.83
2019-02-26T09:10:41.320Z,40.37
2019-02-26T09:13:11.465Z,38.60
2019-02-26T09:15:43.159Z,36.97
2019-02-26T09:18:12.785Z,33.00
2019-02-26T09:20:42.263Z,39.80
2019-02-26T09:23:16.306Z,35.23
2019-02-26T09:25:43.077Z,40.53
2019-02-26T09:28:12.615Z,37.23
2019-02-26T09:30:42.187Z,37.83
2019-02-26T09:33:12.158Z,34.87
2019-02-26T09:35:41.722Z,35.33
2019-02-26T09:38:12.363Z,37.43
2019-02-26T09:40:42.323Z,31.17
2019-02-26T09:43:24.437Z,33.00
2019-02-26T09:45:54.562Z,35.33
2019-02-26T09:48:29.773Z,30.27
2019-02-26T09:51:05.350Z,29.00
2019-02-26T09:53:35.935Z,29.13
2019-02-26T09:56:05.555Z,29.63
2019-02-26T09:58:35.059Z,37.07
2019-02-26T10:01:06.406Z,31.77
2019-02-26T10:03:38.943Z,32.73
2019-02-26T10:06:06.829Z,30.83
2019-02-26T10:08:43.769Z,30.17
2019-02-26T10:11:20.736Z,30.17
2019-02-26T10:13:51.201Z,27.27
2019-02-26T10:16:36.963Z,29.83
2019-02-26T10:19:07.865Z,30.27
2019-02-26T10:24:23.018Z,39.23
2019-02-26T10:26:50.767Z,26.50
2019-02-26T10:29:20.301Z,33.93
2019-02-26T10:31:49.681Z,35.50
2019-02-26T10:34:20.961Z,32.40
2019-02-26T10:36:51.817Z,39.40
2019-02-26T10:39:23.183Z,28.07
2019-02-26T10:41:52.521Z,32.17
2019-02-26T10:44:22.007Z,52.27
2019-02-26T10:46:51.549Z,45.23
2019-02-26T10:49:28.721Z,33.87
2019-02-26T10:51:58.634Z,26.90
2019-02-26T10:54:30.915Z,35.50
2019-02-26T10:57:00.368Z,15.43
2019-02-26T10:59:30.487Z,15.30
2019-02-26T11:02:14.564Z,14.80
2019-02-26T11:04:46.892Z,18.13
2019-02-26T11:07:16.102Z,30.27
2019-02-26T11:09:49.391Z,14.73
2019-02-26T11:12:16.747Z,15.07
2019-02-26T11:14:46.253Z,13.40
2019-02-26T11:17:17.876Z,17.00
2019-02-26T11:19:48.013Z,12.13
2019-02-26T11:22:18.705Z,10.50
2019-02-26T11:24:50.698Z,11.23
2019-02-26T11:30:02.065Z,13.87
2019-02-26T11:32:42.255Z,11.57
2019-02-26T11:35:14.682Z,11.23
2019-02-26T11:37:47.196Z,10.57
2019-02-26T11:40:25.266Z,10.53
2019-02-26T11:42:55.015Z,9.40
2019-02-26T11:45:24.708Z,9.30
2019-02-26T11:48:08.529Z,14.27
2019-02-26T11:50:44.595Z,9.67
2019-02-26T11:53:13.633Z,8.43
2019-02-26T11:55:43.263Z,8.03
2019-02-26T11:58:15.709Z,6.30
2019-02-26T12:00:51.603Z,6.83
2019-02-26T12:03:24.913Z,7.30
2019-02-26T12:05:54.202Z,7.57
2019-02-26T12:08:25.725Z,8.10
2019-02-26T12:10:57.675Z,5.53
2019-02-26T12:13:27.716Z,8.57
2019-02-26T12:15:56.747Z,7.53
2019-02-26T12:18:26.255Z,10.33
2019-02-26T12:20:55.807Z,11.30
2019-02-26T12:23:31.125Z,7.17
2019-02-26T12:26:03.854Z,6.07
2019-02-26T12:28:52.831Z,7.07
2019-02-26T12:31:25.329Z,11.53
2019-02-26T12:33:54.491Z,8.10
2019-02-26T12:36:26.483Z,8.33
2019-02-26T12:38:56.494Z,7.27
2019-02-26T12:41:27.785Z,6.07
2019-02-26T12:43:59.361Z,8.63
2019-02-26T12:46:31.221Z,10.10
2019-02-26T12:54:37.796Z,5.50
2019-02-26T12:57:06.718Z,6.00
2019-02-26T12:59:36.735Z,9.27
2019-02-26T13:02:20.911Z,5.40
2019-02-26T13:04:55.195Z,7.40
2019-02-26T13:10:02.891Z,5.77
2019-02-26T13:12:32.393Z,11.03
2019-02-26T13:15:04.878Z,8.13
2019-02-26T13:17:33.480Z,10.23
2019-02-26T13:20:05.835Z,11.13
2019-02-26T13:22:34.425Z,9.43
2019-02-26T13:25:13.336Z,8.50
2019-02-26T13:27:38.759Z,12.60
2019-02-26T13:30:13.935Z,10.37
2019-02-26T13:32:56.057Z,11.67
2019-02-26T13:35:14.480Z,13.73
2019-02-26T13:37:45.977Z,15.93
2019-02-26T13:40:18.498Z,12.87
2019-02-26T13:42:59.292Z,15.83
2019-02-26T13:45:21.448Z,12.43
2019-02-26T13:47:51.172Z,13.03
2019-02-26T13:50:23.714Z,10.47
2019-02-26T13:52:53.272Z,11.60
2019-02-26T13:55:22.753Z,11.83
2019-02-26T13:57:52.406Z,16.50
2019-02-26T14:00:26.342Z,14.17
2019-02-26T14:02:53.210Z,10.23
2019-02-26T14:05:22.764Z,9.27
2019-02-26T14:07:52.468Z,7.90
2019-02-26T14:10:23.052Z,11.23
2019-02-26T14:12:52.522Z,9.83
2019-02-26T14:15:29.105Z,14.17
2019-02-26T14:17:58.724Z,12.63
2019-02-26T14:20:28.939Z,9.30
2019-02-26T14:22:58.434Z,10.50
2019-02-26T14:25:27.832Z,11.80
2019-02-26T14:27:57.461Z,7.73
2019-02-26T14:30:26.915Z,8.27
2019-02-26T14:32:56.849Z,11.33
2019-02-26T14:35:26.370Z,7.77
2019-02-26T14:37:55.936Z,6.93
2019-02-26T14:40:25.366Z,5.47
2019-02-26T14:42:54.808Z,7.70
2019-02-26T14:45:25.750Z,6.63
2019-02-26T14:47:56.026Z,6.30
2019-02-26T14:50:26.476Z,10.27
2019-02-26T14:52:56.053Z,9.73
2019-02-26T14:55:25.650Z,8.33
2019-02-26T14:57:55.191Z,9.57
2019-02-26T15:00:26.885Z,7.43
2019-02-26T15:02:56.652Z,10.70
2019-02-26T15:05:26.140Z,8.07
2019-02-26T15:07:55.546Z,7.47
2019-02-26T15:10:25.168Z,8.37
2019-02-26T15:12:54.765Z,8.37
2019-02-26T15:15:24.278Z,8.43
2019-02-26T15:17:53.791Z,9.07
2019-02-26T15:20:24.359Z,8.73
2019-02-26T15:22:53.861Z,8.97
2019-02-26T15:25:27.911Z,9.47
2019-02-26T15:28:04.691Z,7.13
2019-02-26T15:30:28.537Z,7.20
2019-02-26T15:32:58.132Z,6.10
2019-02-26T15:35:27.836Z,5.67
2019-02-26T15:37:57.320Z,5.87
2019-02-26T15:40:26.772Z,6.07
2019-02-26T15:42:56.440Z,6.87
2019-02-26T15:45:29.905Z,6.83
2019-02-26T15:48:03.445Z,5.83
2019-02-26T15:50:30.522Z,6.13
2019-02-26T15:52:59.921Z,6.83
2019-02-26T15:55:31.014Z,7.03
2019-02-26T15:58:03.960Z,6.67
2019-02-26T16:00:31.686Z,6.63
2019-02-26T16:03:01.205Z,11.47
2019-02-26T16:05:39.862Z,7.50
2019-02-26T16:08:09.589Z,7.17
2019-02-26T16:10:39.095Z,7.03
2019-02-26T16:13:08.564Z,8.23
2019-02-26T16:15:39.277Z,10.03
2019-02-26T16:18:08.715Z,8.93
2019-02-26T16:20:38.618Z,12.60
2019-02-26T16:23:08.166Z,10.47
2019-02-26T16:25:37.556Z,8.93
2019-02-26T16:28:09.153Z,13.07
2019-02-26T16:30:38.943Z,7.27
2019-02-26T16:33:08.417Z,13.30
2019-02-26T16:35:37.905Z,8.13
2019-02-26T16:38:07.567Z,9.80
2019-02-26T16:40:37.013Z,7.87
2019-02-26T16:43:06.757Z,7.47
2019-02-26T16:45:36.299Z,8.97
2019-02-26T16:48:05.800Z,7.30
2019-02-26T16:50:35.302Z,9.17
2019-02-26T16:53:04.935Z,9.07
2019-02-26T16:55:34.531Z,10.37
2019-02-26T16:58:04.007Z,8.53
2019-02-26T17:00:33.667Z,9.23
2019-02-26T17:03:03.139Z,8.93
2019-02-26T17:05:32.698Z,8.53
2019-02-26T17:08:02.390Z,11.80
2019-02-26T17:10:31.869Z,7.70
2019-02-26T17:13:02.338Z,9.27
2019-02-26T17:15:34.758Z,11.97
2019-02-26T17:18:04.479Z,15.37
2019-02-26T17:20:34.023Z,12.63
2019-02-26T17:23:03.463Z,15.37
2019-02-26T17:25:32.891Z,11.77
2019-02-26T17:28:02.376Z,12.87
2019-02-26T17:30:31.896Z,11.57
2019-02-26T17:33:01.379Z,11.20
2019-02-26T17:35:30.949Z,11.23
2019-02-26T17:38:00.417Z,8.93
2019-02-26T17:40:29.986Z,9.17
2019-02-26T17:42:59.681Z,10.23
2019-02-26T17:45:31.682Z,10.63
2019-02-26T17:48:01.217Z,10.47
2019-02-26T17:50:38.647Z,11.63
2019-02-26T17:53:08.502Z,8.53
2019-02-26T17:55:38.164Z,12.37
2019-02-26T17:58:09.737Z,11.83
2019-02-26T18:00:40.492Z,11.60
2019-02-26T18:03:09.969Z,13.80
2019-02-26T18:05:50.616Z,13.27
2019-02-26T18:08:10.562Z,12.30
2019-02-26T18:10:40.059Z,9.97
2019-02-26T18:13:09.548Z,12.57
2019-02-26T18:15:39.083Z,8.43
2019-02-26T18:18:08.446Z,12.80
2019-02-26T18:20:37.937Z,10.20
2019-02-26T18:23:07.416Z,10.60
2019-02-26T18:25:36.899Z,16.33
2019-02-26T18:28:08.648Z,15.47
2019-02-26T18:30:37.541Z,17.10
2019-02-26T18:33:07.498Z,15.77
2019-02-26T18:35:36.962Z,13.77
2019-02-26T18:38:06.559Z,13.43
2019-02-26T18:40:36.044Z,14.13
2019-02-26T18:43:05.528Z,15.87
2019-02-26T18:45:34.982Z,14.53
2019-02-26T18:48:04.456Z,19.73
2019-02-26T18:50:33.976Z,15.67
2019-02-26T18:53:03.466Z,17.33
2019-02-26T18:55:33.030Z,15.17
2019-02-26T18:58:03.482Z,17.73
2019-02-26T19:00:34.320Z,12.37
2019-02-26T19:03:03.906Z,17.33
2019-02-26T19:05:33.294Z,18.60
2019-02-26T19:08:05.603Z,15.87
2019-02-26T19:10:33.982Z,14.00
2019-02-26T19:13:03.456Z,16.27
2019-02-26T19:15:34.361Z,15.87
2019-02-26T19:18:03.953Z,17.37
2019-02-26T19:20:38.266Z,15.23
2019-02-26T19:23:07.901Z,21.03
2019-02-26T19:25:41.443Z,18.57
2019-02-26T19:28:09.829Z,21.67
2019-02-26T19:30:39.418Z,23.63
2019-02-26T19:33:09.208Z,19.50
2019-02-26T19:35:40.434Z,14.60
2019-02-26T19:38:09.850Z,14.50
2019-02-26T19:40:51.220Z,17.07
2019-02-26T19:43:20.745Z,20.50
2019-02-26T19:45:50.264Z,17.87
2019-02-26T19:48:19.802Z,20.20
2019-02-26T19:50:49.263Z,14.13
2019-02-26T19:53:18.882Z,20.27
2019-02-26T19:55:50.066Z,17.77
2019-02-26T19:58:19.594Z,14.77
2019-02-26T20:00:52.735Z,18.70
2019-02-26T20:03:20.146Z,18.37
2019-02-26T20:05:49.527Z,20.03
2019-02-26T20:08:19.074Z,20.53
2019-02-26T20:10:51.683Z,20.17
2019-02-26T20:13:19.714Z,17.87
2019-02-26T20:15:49.205Z,19.90
2019-02-26T20:18:20.890Z,23.17
2019-02-26T20:20:49.782Z,17.30
2019-02-26T20:23:19.372Z,16.93
2019-02-26T20:25:49.017Z,16.10
2019-02-26T20:28:18.547Z,20.50
2019-02-26T20:30:48.915Z,16.27
2019-02-26T20:33:18.469Z,22.57
2019-02-26T20:35:47.962Z,19.47
2019-02-26T20:38:17.413Z,23.03
2019-02-26T20:40:48.927Z,18.10
2019-02-26T20:43:18.039Z,25.33
2019-02-26T20:45:48.678Z,24.60
2019-02-26T20:48:18.542Z,24.17
2019-02-26T20:50:48.064Z,23.70
2019-02-26T20:53:17.460Z,24.83
2019-02-26T20:55:52.459Z,22.80
2019-02-26T20:58:18.200Z,27.87
2019-02-26T21:00:48.318Z,23.20
2019-02-26T21:03:17.891Z,26.60
2019-02-26T21:05:47.393Z,22.07
2019-02-26T21:08:16.863Z,23.00
2019-02-26T21:10:48.100Z,28.37
2019-02-26T21:13:17.462Z,24.83
2019-02-26T21:15:47.384Z,26.90
2019-02-26T21:18:17.457Z,25.70
2019-02-26T21:20:46.949Z,24.57
2019-02-26T21:23:16.423Z,29.27
2019-02-26T21:25:47.555Z,25.43
2019-02-26T21:28:17.113Z,26.10
2019-02-26T21:30:46.592Z,22.20
2019-02-26T21:33:16.111Z,27.13
2019-02-26T21:35:45.664Z,31.03
2019-02-26T21:38:15.075Z,23.73
2019-02-26T21:40:48.691Z,24.30
2019-02-26T21:43:15.725Z,26.13
2019-02-26T21:45:49.133Z,24.83
2019-02-26T21:48:16.254Z,20.00
2019-02-26T21:50:45.746Z,22.07
2019-02-26T21:53:15.996Z,23.60
2019-02-26T21:55:45.927Z,22.20
2019-02-26T21:58:15.395Z,21.43
2019-02-26T22:00:44.883Z,23.27
2019-02-26T22:03:14.345Z,20.63
2019-02-26T22:05:43.837Z,24.27
2019-02-26T22:08:13.243Z,24.67
2019-02-26T22:10:42.798Z,30.97
2019-02-26T22:13:12.870Z,27.47
2019-02-26T22:15:44.725Z,23.67
2019-02-26T22:18:13.449Z,20.63
2019-02-26T22:20:42.847Z,23.10
2019-02-26T22:23:12.332Z,20.67
2019-02-26T22:25:41.767Z,27.03
2019-02-26T22:28:11.224Z,27.13
2019-02-26T22:30:40.747Z,25.53
2019-02-26T22:33:10.207Z,25.07
2019-02-26T22:35:39.671Z,24.20
2019-02-26T22:38:09.081Z,26.30
2019-02-26T22:40:39.171Z,23.00
2019-02-26T22:43:08.681Z,21.57
2019-02-26T22:45:38.259Z,24.07
2019-02-26T22:48:08.695Z,25.33
2019-02-26T22:50:38.253Z,22.23
2019-02-26T22:53:07.717Z,31.70
2019-02-26T22:55:37.183Z,30.70
2019-02-26T22:58:06.635Z,28.90
2019-02-26T23:00:49.659Z,24.63
2019-02-26T23:03:19.362Z,28.70
2019-02-26T23:05:48.931Z,30.27
2019-02-26T23:08:18.576Z,28.17
2019-02-26T23:10:48.287Z,27.97
2019-02-26T23:13:17.919Z,27.53
2019-02-26T23:15:47.747Z,27.07
2019-02-26T23:18:17.697Z,23.50
2019-02-26T23:20:47.244Z,29.23
2019-02-26T23:23:16.791Z,23.87
2019-02-26T23:25:46.383Z,27.50
2019-02-26T23:28:16.009Z,25.13
2019-02-26T23:30:45.591Z,28.80
2019-02-26T23:33:15.771Z,24.97
2019-02-26T23:35:45.383Z,25.00
2019-02-26T23:38:14.921Z,24.83
2019-02-26T23:40:44.392Z,23.33
2019-02-26T23:43:13.837Z,22.57
2019-02-26T23:45:43.453Z,24.73
2019-02-26T23:48:12.901Z,24.93
2019-02-26T23:50:47.034Z,22.27
2019-02-26T23:53:13.645Z,22.30
2019-02-26T23:55:46.426Z,22.20
2019-02-26T23:58:14.310Z,23.87
